sensor_id;sensor_type;location;lat;lon;timestamp;P1;durP1;ratioP1;P2;durP2;ratioP2
2644;SDS011;15377;48.540;9.268;2023-08-24T00:01:28;11.83;;;9.07;;
2644;SDS011;15377;48.540;9.268;2023-08-24T00:03:53;10.00;;;8.07;;
2644;SDS011;15377;48.540;9.268;2023-08-24T00:06:18;12.20;;;7.97;;
2644;SDS011;15377;48.540;9.268;2023-08-24T00:08:44;10.20;;;8.10;;
2644;SDS011;15377;48.540;9.268;2023-08-24T00:11:10;12.27;;;9.17;;
2644;SDS011;15377;48.540;9.268;2023-08-24T00:13:40;10.10;;;8.17;;
2644;SDS011;15377;48.540;9.268;2023-08-24T00:16:17;10.17;;;8.10;;
2644;SDS011;15377;48.540;9.268;2023-08-24T00:18:44;11.63;;;8.30;;
2644;SDS011;15377;48.540;9.268;2023-08-24T00:21:10;14.10;;;8.63;;
2644;SDS011;15377;48.540;9.268;2023-08-24T00:23:35;19.73;;;9.13;;
2644;SDS011;15377;48.540;9.268;2023-08-24T00:26:01;11.00;;;8.40;;
2644;SDS011;15377;48.540;9.268;2023-08-24T00:28:26;12.87;;;8.20;;
2644;SDS011;15377;48.540;9.268;2023-08-24T00:30:51;12.70;;;9.20;;
2644;SDS011;15377;48.540;9.268;2023-08-24T00:33:17;9.77;;;7.50;;
2644;SDS011;15377;48.540;9.268;2023-08-24T00:35:42;11.90;;;8.27;;
2644;SDS011;15377;48.540;9.268;2023-08-24T00:38:07;11.80;;;8.47;;
2644;SDS011;15377;48.540;9.268;2023-08-24T00:40:33;11.00;;;7.23;;
2644;SDS011;15377;48.540;9.268;2023-08-24T00:42:59;14.33;;;9.30;;
2644;SDS011;15377;48.540;9.268;2023-08-24T00:45:24;11.57;;;9.90;;
2644;SDS011;15377;48.540;9.268;2023-08-24T00:47:50;10.63;;;8.43;;
2644;SDS011;15377;48.540;9.268;2023-08-24T00:50:17;12.07;;;8.10;;
2644;SDS011;15377;48.540;9.268;2023-08-24T00:52:43;11.23;;;8.67;;
2644;SDS011;15377;48.540;9.268;2023-08-24T00:55:09;11.20;;;8.10;;
2644;SDS011;15377;48.540;9.268;2023-08-24T00:57:35;13.90;;;7.67;;
2644;SDS011;15377;48.540;9.268;2023-08-24T01:00:03;11.70;;;8.87;;
2644;SDS011;15377;48.540;9.268;2023-08-24T01:02:31;13.23;;;8.47;;
2644;SDS011;15377;48.540;9.268;2023-08-24T01:04:57;11.20;;;8.70;;
2644;SDS011;15377;48.540;9.268;2023-08-24T01:07:23;13.60;;;8.87;;
2644;SDS011;15377;48.540;9.268;2023-08-24T01:09:49;10.07;;;7.90;;
2644;SDS011;15377;48.540;9.268;2023-08-24T01:17:27;12.40;;;9.37;;
2644;SDS011;15377;48.540;9.268;2023-08-24T01:19:56;11.33;;;8.80;;
2644;SDS011;15377;48.540;9.268;2023-08-24T01:27:38;11.23;;;9.43;;
2644;SDS011;15377;48.540;9.268;2023-08-24T01:30:05;11.77;;;9.50;;
2644;SDS011;15377;48.540;9.268;2023-08-24T01:32:33;11.53;;;9.67;;
2644;SDS011;15377;48.540;9.268;2023-08-24T01:35:01;11.20;;;8.87;;
2644;SDS011;15377;48.540;9.268;2023-08-24T01:37:27;13.67;;;8.80;;
2644;SDS011;15377;48.540;9.268;2023-08-24T01:42:38;15.00;;;8.87;;
2644;SDS011;15377;48.540;9.268;2023-08-24T01:45:10;13.63;;;9.17;;
2644;SDS011;15377;48.540;9.268;2023-08-24T01:47:38;10.33;;;7.93;;
2644;SDS011;15377;48.540;9.268;2023-08-24T01:50:06;12.20;;;8.47;;
2644;SDS011;15377;48.540;9.268;2023-08-24T01:52:32;11.20;;;8.50;;
2644;SDS011;15377;48.540;9.268;2023-08-24T01:54:59;11.53;;;7.60;;
2644;SDS011;15377;48.540;9.268;2023-08-24T01:57:24;13.87;;;8.73;;
2644;SDS011;15377;48.540;9.268;2023-08-24T01:59:50;13.53;;;8.83;;
2644;SDS011;15377;48.540;9.268;2023-08-24T02:02:16;13.97;;;10.77;;
2644;SDS011;15377;48.540;9.268;2023-08-24T02:04:42;16.00;;;8.53;;
2644;SDS011;15377;48.540;9.268;2023-08-24T02:07:07;11.60;;;8.97;;
2644;SDS011;15377;48.540;9.268;2023-08-24T02:09:32;12.97;;;9.47;;
2644;SDS011;15377;48.540;9.268;2023-08-24T02:11:58;14.30;;;9.90;;
2644;SDS011;15377;48.540;9.268;2023-08-24T02:14:23;11.40;;;9.27;;
2644;SDS011;15377;48.540;9.268;2023-08-24T02:16:48;12.90;;;10.10;;
2644;SDS011;15377;48.540;9.268;2023-08-24T02:19:14;16.90;;;11.27;;
2644;SDS011;15377;48.540;9.268;2023-08-24T02:21:39;14.20;;;10.73;;
2644;SDS011;15377;48.540;9.268;2023-08-24T02:24:05;12.30;;;10.37;;
2644;SDS011;15377;48.540;9.268;2023-08-24T02:26:30;11.87;;;8.90;;
2644;SDS011;15377;48.540;9.268;2023-08-24T02:28:56;13.83;;;9.33;;
2644;SDS011;15377;48.540;9.268;2023-08-24T02:31:22;14.57;;;9.00;;
2644;SDS011;15377;48.540;9.268;2023-08-24T02:33:47;13.40;;;9.83;;
2644;SDS011;15377;48.540;9.268;2023-08-24T02:36:14;12.00;;;9.10;;
2644;SDS011;15377;48.540;9.268;2023-08-24T02:38:39;11.17;;;7.97;;
2644;SDS011;15377;48.540;9.268;2023-08-24T02:41:05;12.63;;;9.63;;
2644;SDS011;15377;48.540;9.268;2023-08-24T02:43:31;11.77;;;9.27;;
2644;SDS011;15377;48.540;9.268;2023-08-24T02:46:01;12.27;;;9.47;;
2644;SDS011;15377;48.540;9.268;2023-08-24T02:48:28;13.57;;;10.20;;
2644;SDS011;15377;48.540;9.268;2023-08-24T02:50:54;10.60;;;8.90;;
2644;SDS011;15377;48.540;9.268;2023-08-24T02:53:19;12.23;;;9.03;;
2644;SDS011;15377;48.540;9.268;2023-08-24T02:55:45;12.47;;;9.17;;
2644;SDS011;15377;48.540;9.268;2023-08-24T02:58:10;11.40;;;8.70;;
2644;SDS011;15377;48.540;9.268;2023-08-24T03:00:37;13.07;;;9.70;;
2644;SDS011;15377;48.540;9.268;2023-08-24T03:03:03;11.63;;;9.43;;
2644;SDS011;15377;48.540;9.268;2023-08-24T03:05:30;13.70;;;10.10;;
2644;SDS011;15377;48.540;9.268;2023-08-24T03:07:57;11.20;;;9.10;;
2644;SDS011;15377;48.540;9.268;2023-08-24T03:10:22;11.63;;;8.47;;
2644;SDS011;15377;48.540;9.268;2023-08-24T03:12:48;11.20;;;8.90;;
2644;SDS011;15377;48.540;9.268;2023-08-24T03:15:13;11.50;;;8.70;;
2644;SDS011;15377;48.540;9.268;2023-08-24T03:17:38;12.70;;;9.33;;
2644;SDS011;15377;48.540;9.268;2023-08-24T03:20:04;13.50;;;9.70;;
2644;SDS011;15377;48.540;9.268;2023-08-24T03:22:29;14.90;;;10.47;;
2644;SDS011;15377;48.540;9.268;2023-08-24T03:24:55;13.53;;;9.83;;
2644;SDS011;15377;48.540;9.268;2023-08-24T03:27:20;12.17;;;9.93;;
2644;SDS011;15377;48.540;9.268;2023-08-24T03:29:46;13.10;;;9.20;;
2644;SDS011;15377;48.540;9.268;2023-08-24T03:32:11;13.20;;;9.30;;
2644;SDS011;15377;48.540;9.268;2023-08-24T03:34:36;12.43;;;9.33;;
2644;SDS011;15377;48.540;9.268;2023-08-24T03:37:02;12.77;;;9.90;;
2644;SDS011;15377;48.540;9.268;2023-08-24T03:39:27;11.37;;;8.80;;
2644;SDS011;15377;48.540;9.268;2023-08-24T03:41:52;12.07;;;9.37;;
2644;SDS011;15377;48.540;9.268;2023-08-24T03:44:18;12.67;;;9.70;;
2644;SDS011;15377;48.540;9.268;2023-08-24T03:46:43;13.77;;;9.50;;
2644;SDS011;15377;48.540;9.268;2023-08-24T03:49:08;12.10;;;8.87;;
2644;SDS011;15377;48.540;9.268;2023-08-24T03:51:34;12.00;;;9.90;;
2644;SDS011;15377;48.540;9.268;2023-08-24T03:53:59;12.63;;;9.17;;
2644;SDS011;15377;48.540;9.268;2023-08-24T03:56:24;11.80;;;9.37;;
2644;SDS011;15377;48.540;9.268;2023-08-24T03:58:50;13.53;;;10.07;;
2644;SDS011;15377;48.540;9.268;2023-08-24T04:01:15;13.47;;;10.07;;
2644;SDS011;15377;48.540;9.268;2023-08-24T04:03:40;14.93;;;9.90;;
2644;SDS011;15377;48.540;9.268;2023-08-24T04:06:06;14.03;;;9.90;;
2644;SDS011;15377;48.540;9.268;2023-08-24T04:08:32;13.70;;;9.67;;
2644;SDS011;15377;48.540;9.268;2023-08-24T04:10:57;19.03;;;11.70;;
2644;SDS011;15377;48.540;9.268;2023-08-24T04:13:23;13.53;;;10.17;;
2644;SDS011;15377;48.540;9.268;2023-08-24T04:15:48;14.27;;;10.30;;
2644;SDS011;15377;48.540;9.268;2023-08-24T04:18:13;13.83;;;10.37;;
2644;SDS011;15377;48.540;9.268;2023-08-24T04:20:39;13.03;;;10.23;;
2644;SDS011;15377;48.540;9.268;2023-08-24T04:23:04;12.80;;;10.07;;
2644;SDS011;15377;48.540;9.268;2023-08-24T04:25:29;12.80;;;9.50;;
2644;SDS011;15377;48.540;9.268;2023-08-24T04:27:55;12.63;;;9.87;;
2644;SDS011;15377;48.540;9.268;2023-08-24T04:30:20;12.10;;;9.40;;
2644;SDS011;15377;48.540;9.268;2023-08-24T04:32:46;13.20;;;10.20;;
2644;SDS011;15377;48.540;9.268;2023-08-24T04:35:12;14.13;;;10.70;;
2644;SDS011;15377;48.540;9.268;2023-08-24T04:37:38;13.60;;;10.37;;
2644;SDS011;15377;48.540;9.268;2023-08-24T04:40:03;13.90;;;10.03;;
2644;SDS011;15377;48.540;9.268;2023-08-24T04:42:30;14.27;;;11.40;;
2644;SDS011;15377;48.540;9.268;2023-08-24T04:44:55;15.20;;;11.20;;
2644;SDS011;15377;48.540;9.268;2023-08-24T04:47:20;15.53;;;10.90;;
2644;SDS011;15377;48.540;9.268;2023-08-24T04:49:46;14.93;;;11.10;;
2644;SDS011;15377;48.540;9.268;2023-08-24T04:52:11;12.80;;;10.53;;
2644;SDS011;15377;48.540;9.268;2023-08-24T04:54:36;12.93;;;9.90;;
2644;SDS011;15377;48.540;9.268;2023-08-24T04:57:02;12.03;;;9.23;;
2644;SDS011;15377;48.540;9.268;2023-08-24T04:59:27;12.60;;;9.67;;
2644;SDS011;15377;48.540;9.268;2023-08-24T05:01:52;13.33;;;9.80;;
2644;SDS011;15377;48.540;9.268;2023-08-24T05:04:18;12.07;;;9.47;;
2644;SDS011;15377;48.540;9.268;2023-08-24T05:06:43;14.43;;;11.17;;
2644;SDS011;15377;48.540;9.268;2023-08-24T05:09:09;12.80;;;10.20;;
2644;SDS011;15377;48.540;9.268;2023-08-24T05:11:34;12.87;;;9.83;;
2644;SDS011;15377;48.540;9.268;2023-08-24T05:13:59;14.73;;;11.40;;
2644;SDS011;15377;48.540;9.268;2023-08-24T05:16:25;18.60;;;10.10;;
2644;SDS011;15377;48.540;9.268;2023-08-24T05:18:50;13.70;;;10.27;;
2644;SDS011;15377;48.540;9.268;2023-08-24T05:21:16;12.40;;;9.90;;
2644;SDS011;15377;48.540;9.268;2023-08-24T05:23:41;13.70;;;10.03;;
2644;SDS011;15377;48.540;9.268;2023-08-24T05:26:07;13.57;;;10.13;;
2644;SDS011;15377;48.540;9.268;2023-08-24T05:28:32;13.07;;;9.43;;
2644;SDS011;15377;48.540;9.268;2023-08-24T05:30:58;10.87;;;8.47;;
2644;SDS011;15377;48.540;9.268;2023-08-24T05:33:24;12.23;;;9.97;;
2644;SDS011;15377;48.540;9.268;2023-08-24T05:35:50;14.50;;;8.77;;
2644;SDS011;15377;48.540;9.268;2023-08-24T05:38:16;14.53;;;10.40;;
2644;SDS011;15377;48.540;9.268;2023-08-24T05:40:42;14.73;;;9.67;;
2644;SDS011;15377;48.540;9.268;2023-08-24T05:43:09;20.90;;;9.90;;
2644;SDS011;15377;48.540;9.268;2023-08-24T05:45:35;12.13;;;8.97;;
2644;SDS011;15377;48.540;9.268;2023-08-24T05:48:00;14.33;;;8.33;;
2644;SDS011;15377;48.540;9.268;2023-08-24T05:50:26;11.30;;;7.70;;
2644;SDS011;15377;48.540;9.268;2023-08-24T05:52:51;11.77;;;8.40;;
2644;SDS011;15377;48.540;9.268;2023-08-24T05:55:17;12.90;;;8.17;;
2644;SDS011;15377;48.540;9.268;2023-08-24T05:57:42;11.37;;;8.17;;
2644;SDS011;15377;48.540;9.268;2023-08-24T06:00:08;11.10;;;8.30;;
2644;SDS011;15377;48.540;9.268;2023-08-24T06:02:38;11.07;;;8.40;;
2644;SDS011;15377;48.540;9.268;2023-08-24T06:05:04;12.87;;;9.17;;
2644;SDS011;15377;48.540;9.268;2023-08-24T06:07:31;10.80;;;8.40;;
2644;SDS011;15377;48.540;9.268;2023-08-24T06:09:57;11.80;;;9.20;;
2644;SDS011;15377;48.540;9.268;2023-08-24T06:12:23;11.87;;;8.17;;
2644;SDS011;15377;48.540;9.268;2023-08-24T06:14:48;12.00;;;8.20;;
2644;SDS011;15377;48.540;9.268;2023-08-24T06:17:13;16.67;;;8.37;;
2644;SDS011;15377;48.540;9.268;2023-08-24T06:19:39;11.00;;;6.93;;
2644;SDS011;15377;48.540;9.268;2023-08-24T06:22:04;12.20;;;8.23;;
2644;SDS011;15377;48.540;9.268;2023-08-24T06:24:29;11.47;;;8.00;;
2644;SDS011;15377;48.540;9.268;2023-08-24T06:26:55;11.40;;;8.20;;
2644;SDS011;15377;48.540;9.268;2023-08-24T06:29:20;9.70;;;7.47;;
2644;SDS011;15377;48.540;9.268;2023-08-24T06:31:45;10.33;;;8.20;;
2644;SDS011;15377;48.540;9.268;2023-08-24T06:34:11;12.60;;;8.93;;
2644;SDS011;15377;48.540;9.268;2023-08-24T06:36:36;10.00;;;7.50;;
2644;SDS011;15377;48.540;9.268;2023-08-24T06:39:02;11.60;;;8.37;;
2644;SDS011;15377;48.540;9.268;2023-08-24T06:41:32;14.73;;;8.57;;
2644;SDS011;15377;48.540;9.268;2023-08-24T06:43:58;13.13;;;8.90;;
2644;SDS011;15377;48.540;9.268;2023-08-24T06:46:24;14.07;;;9.53;;
2644;SDS011;15377;48.540;9.268;2023-08-24T06:48:49;12.93;;;8.50;;
2644;SDS011;15377;48.540;9.268;2023-08-24T06:51:14;11.63;;;9.03;;
2644;SDS011;15377;48.540;9.268;2023-08-24T06:53:40;12.63;;;9.10;;
2644;SDS011;15377;48.540;9.268;2023-08-24T06:56:07;15.03;;;9.30;;
2644;SDS011;15377;48.540;9.268;2023-08-24T06:58:33;13.30;;;9.43;;
2644;SDS011;15377;48.540;9.268;2023-08-24T07:00:59;10.37;;;7.70;;
2644;SDS011;15377;48.540;9.268;2023-08-24T07:03:25;11.33;;;8.47;;
2644;SDS011;15377;48.540;9.268;2023-08-24T07:05:50;10.57;;;8.80;;
2644;SDS011;15377;48.540;9.268;2023-08-24T07:08:15;11.23;;;8.20;;
2644;SDS011;15377;48.540;9.268;2023-08-24T07:10:41;13.63;;;9.40;;
2644;SDS011;15377;48.540;9.268;2023-08-24T07:13:07;11.83;;;8.80;;
2644;SDS011;15377;48.540;9.268;2023-08-24T07:15:33;16.50;;;9.50;;
2644;SDS011;15377;48.540;9.268;2023-08-24T07:18:00;12.97;;;9.60;;
2644;SDS011;15377;48.540;9.268;2023-08-24T07:20:26;13.07;;;9.60;;
2644;SDS011;15377;48.540;9.268;2023-08-24T07:22:51;12.33;;;9.17;;
2644;SDS011;15377;48.540;9.268;2023-08-24T07:25:18;11.87;;;8.73;;
2644;SDS011;15377;48.540;9.268;2023-08-24T07:27:45;12.77;;;9.17;;
2644;SDS011;15377;48.540;9.268;2023-08-24T07:30:11;11.20;;;9.13;;
2644;SDS011;15377;48.540;9.268;2023-08-24T07:32:37;15.20;;;10.90;;
2644;SDS011;15377;48.540;9.268;2023-08-24T07:35:02;12.30;;;9.80;;
2644;SDS011;15377;48.540;9.268;2023-08-24T07:37:28;17.53;;;10.73;;
2644;SDS011;15377;48.540;9.268;2023-08-24T07:39:53;11.90;;;9.60;;
2644;SDS011;15377;48.540;9.268;2023-08-24T07:42:19;12.77;;;10.00;;
2644;SDS011;15377;48.540;9.268;2023-08-24T07:44:46;14.47;;;11.27;;
2644;SDS011;15377;48.540;9.268;2023-08-24T07:47:11;13.53;;;10.30;;
2644;SDS011;15377;48.540;9.268;2023-08-24T07:49:37;12.17;;;9.90;;
2644;SDS011;15377;48.540;9.268;2023-08-24T07:52:08;11.30;;;8.83;;
2644;SDS011;15377;48.540;9.268;2023-08-24T07:54:33;13.93;;;9.57;;
2644;SDS011;15377;48.540;9.268;2023-08-24T07:56:59;11.97;;;9.20;;
2644;SDS011;15377;48.540;9.268;2023-08-24T07:59:24;12.27;;;8.80;;
2644;SDS011;15377;48.540;9.268;2023-08-24T08:01:49;12.93;;;8.83;;
2644;SDS011;15377;48.540;9.268;2023-08-24T08:04:15;12.33;;;8.80;;
2644;SDS011;15377;48.540;9.268;2023-08-24T08:06:40;11.40;;;8.27;;
2644;SDS011;15377;48.540;9.268;2023-08-24T08:09:05;12.70;;;9.37;;
2644;SDS011;15377;48.540;9.268;2023-08-24T08:11:31;12.27;;;8.50;;
2644;SDS011;15377;48.540;9.268;2023-08-24T08:13:56;10.30;;;8.57;;
2644;SDS011;15377;48.540;9.268;2023-08-24T08:16:21;14.70;;;9.93;;
2644;SDS011;15377;48.540;9.268;2023-08-24T08:18:47;9.70;;;7.93;;
2644;SDS011;15377;48.540;9.268;2023-08-24T08:21:14;11.33;;;8.40;;
2644;SDS011;15377;48.540;9.268;2023-08-24T08:23:44;11.03;;;7.40;;
2644;SDS011;15377;48.540;9.268;2023-08-24T08:26:10;13.27;;;8.97;;
2644;SDS011;15377;48.540;9.268;2023-08-24T08:28:37;9.83;;;7.70;;
2644;SDS011;15377;48.540;9.268;2023-08-24T08:31:02;11.00;;;7.77;;
2644;SDS011;15377;48.540;9.268;2023-08-24T08:33:28;13.00;;;8.50;;
2644;SDS011;15377;48.540;9.268;2023-08-24T08:35:54;11.27;;;7.63;;
2644;SDS011;15377;48.540;9.268;2023-08-24T08:38:19;12.10;;;8.60;;
2644;SDS011;15377;48.540;9.268;2023-08-24T08:40:47;15.83;;;9.70;;
2644;SDS011;15377;48.540;9.268;2023-08-24T08:43:15;11.00;;;8.50;;
2644;SDS011;15377;48.540;9.268;2023-08-24T08:45:40;11.30;;;8.60;;
2644;SDS011;15377;48.540;9.268;2023-08-24T08:48:06;10.60;;;8.70;;
2644;SDS011;15377;48.540;9.268;2023-08-24T08:50:32;11.97;;;7.87;;
2644;SDS011;15377;48.540;9.268;2023-08-24T08:53:00;12.53;;;7.33;;
2644;SDS011;15377;48.540;9.268;2023-08-24T08:55:25;10.10;;;6.87;;
2644;SDS011;15377;48.540;9.268;2023-08-24T08:57:51;9.33;;;7.10;;
2644;SDS011;15377;48.540;9.268;2023-08-24T09:00:19;10.20;;;7.50;;
2644;SDS011;15377;48.540;9.268;2023-08-24T09:02:45;11.03;;;7.00;;
2644;SDS011;15377;48.540;9.268;2023-08-24T09:05:13;11.30;;;7.73;;
2644;SDS011;15377;48.540;9.268;2023-08-24T09:07:39;11.00;;;7.30;;
2644;SDS011;15377;48.540;9.268;2023-08-24T09:10:05;11.43;;;7.30;;
2644;SDS011;15377;48.540;9.268;2023-08-24T09:12:32;9.40;;;6.40;;
2644;SDS011;15377;48.540;9.268;2023-08-24T09:14:58;11.10;;;7.67;;
2644;SDS011;15377;48.540;9.268;2023-08-24T09:17:23;12.30;;;7.57;;
2644;SDS011;15377;48.540;9.268;2023-08-24T09:19:49;10.40;;;7.33;;
2644;SDS011;15377;48.540;9.268;2023-08-24T09:22:16;10.00;;;7.63;;
2644;SDS011;15377;48.540;9.268;2023-08-24T09:24:42;11.40;;;7.33;;
2644;SDS011;15377;48.540;9.268;2023-08-24T09:27:18;9.87;;;7.03;;
2644;SDS011;15377;48.540;9.268;2023-08-24T09:29:50;10.20;;;7.17;;
2644;SDS011;15377;48.540;9.268;2023-08-24T09:34:55;11.97;;;6.50;;
2644;SDS011;15377;48.540;9.268;2023-08-24T09:37:21;12.27;;;6.77;;
2644;SDS011;15377;48.540;9.268;2023-08-24T09:39:47;9.23;;;6.70;;
2644;SDS011;15377;48.540;9.268;2023-08-24T09:42:13;10.73;;;7.07;;
2644;SDS011;15377;48.540;9.268;2023-08-24T09:44:44;11.00;;;7.20;;
2644;SDS011;15377;48.540;9.268;2023-08-24T09:47:13;9.83;;;7.17;;
2644;SDS011;15377;48.540;9.268;2023-08-24T09:49:38;10.83;;;7.20;;
2644;SDS011;15377;48.540;9.268;2023-08-24T09:52:07;9.60;;;6.70;;
2644;SDS011;15377;48.540;9.268;2023-08-24T09:54:35;11.57;;;6.10;;
2644;SDS011;15377;48.540;9.268;2023-08-24T09:57:02;9.13;;;6.27;;
2644;SDS011;15377;48.540;9.268;2023-08-24T09:59:31;11.70;;;6.13;;
2644;SDS011;15377;48.540;9.268;2023-08-24T10:01:57;10.20;;;6.30;;
2644;SDS011;15377;48.540;9.268;2023-08-24T10:04:28;8.73;;;6.23;;
2644;SDS011;15377;48.540;9.268;2023-08-24T10:07:08;8.50;;;6.63;;
2644;SDS011;15377;48.540;9.268;2023-08-24T10:12:28;8.93;;;6.07;;
2644;SDS011;15377;48.540;9.268;2023-08-24T10:14:59;10.03;;;6.80;;
2644;SDS011;15377;48.540;9.268;2023-08-24T10:17:32;10.67;;;5.70;;
2644;SDS011;15377;48.540;9.268;2023-08-24T10:20:02;9.53;;;6.13;;
2644;SDS011;15377;48.540;9.268;2023-08-24T10:22:31;9.60;;;6.10;;
2644;SDS011;15377;48.540;9.268;2023-08-24T10:24:59;8.30;;;5.57;;
2644;SDS011;15377;48.540;9.268;2023-08-24T10:27:26;8.90;;;5.67;;
2644;SDS011;15377;48.540;9.268;2023-08-24T10:29:52;13.50;;;6.80;;
2644;SDS011;15377;48.540;9.268;2023-08-24T10:32:19;9.53;;;6.13;;
2644;SDS011;15377;48.540;9.268;2023-08-24T10:34:46;8.70;;;6.33;;
2644;SDS011;15377;48.540;9.268;2023-08-24T10:37:12;8.17;;;5.73;;
2644;SDS011;15377;48.540;9.268;2023-08-24T10:39:38;9.23;;;6.10;;
2644;SDS011;15377;48.540;9.268;2023-08-24T10:42:10;8.47;;;5.70;;
2644;SDS011;15377;48.540;9.268;2023-08-24T10:44:37;9.80;;;6.80;;
2644;SDS011;15377;48.540;9.268;2023-08-24T10:47:14;9.03;;;6.13;;
2644;SDS011;15377;48.540;9.268;2023-08-24T10:52:19;10.33;;;6.60;;
2644;SDS011;15377;48.540;9.268;2023-08-24T10:54:47;8.07;;;6.40;;
2644;SDS011;15377;48.540;9.268;2023-08-24T10:57:23;8.60;;;6.17;;
2644;SDS011;15377;48.540;9.268;2023-08-24T11:00:10;9.43;;;6.50;;
2644;SDS011;15377;48.540;9.268;2023-08-24T11:02:44;8.40;;;5.90;;
2644;SDS011;15377;48.540;9.268;2023-08-24T11:07:48;9.53;;;6.10;;
2644;SDS011;15377;48.540;9.268;2023-08-24T11:10:19;11.90;;;6.77;;
2644;SDS011;15377;48.540;9.268;2023-08-24T11:15:30;14.57;;;7.50;;
2644;SDS011;15377;48.540;9.268;2023-08-24T11:20:46;11.03;;;7.07;;
2644;SDS011;15377;48.540;9.268;2023-08-24T11:23:14;10.17;;;6.53;;
2644;SDS011;15377;48.540;9.268;2023-08-24T11:25:40;10.17;;;6.53;;
2644;SDS011;15377;48.540;9.268;2023-08-24T11:28:06;10.43;;;6.70;;
2644;SDS011;15377;48.540;9.268;2023-08-24T11:30:31;13.73;;;8.03;;
2644;SDS011;15377;48.540;9.268;2023-08-24T11:32:58;9.77;;;6.77;;
2644;SDS011;15377;48.540;9.268;2023-08-24T11:35:23;9.07;;;6.83;;
2644;SDS011;15377;48.540;9.268;2023-08-24T11:37:52;11.57;;;6.63;;
2644;SDS011;15377;48.540;9.268;2023-08-24T11:40:18;9.20;;;6.87;;
2644;SDS011;15377;48.540;9.268;2023-08-24T11:42:45;9.40;;;6.73;;
2644;SDS011;15377;48.540;9.268;2023-08-24T11:45:11;8.10;;;6.30;;
2644;SDS011;15377;48.540;9.268;2023-08-24T11:47:40;11.57;;;6.67;;
2644;SDS011;15377;48.540;9.268;2023-08-24T11:50:06;9.10;;;6.23;;
2644;SDS011;15377;48.540;9.268;2023-08-24T11:52:33;8.60;;;6.00;;
2644;SDS011;15377;48.540;9.268;2023-08-24T11:55:04;11.43;;;7.40;;
2644;SDS011;15377;48.540;9.268;2023-08-24T11:57:33;11.97;;;6.10;;
2644;SDS011;15377;48.540;9.268;2023-08-24T11:59:59;9.40;;;6.80;;
2644;SDS011;15377;48.540;9.268;2023-08-24T12:02:24;11.63;;;7.50;;
2644;SDS011;15377;48.540;9.268;2023-08-24T12:04:50;11.13;;;6.50;;
2644;SDS011;15377;48.540;9.268;2023-08-24T12:07:16;8.80;;;5.87;;
2644;SDS011;15377;48.540;9.268;2023-08-24T12:09:42;13.70;;;6.70;;
2644;SDS011;15377;48.540;9.268;2023-08-24T12:12:16;10.20;;;6.33;;
2644;SDS011;15377;48.540;9.268;2023-08-24T12:14:43;9.90;;;5.73;;
2644;SDS011;15377;48.540;9.268;2023-08-24T12:17:09;11.97;;;6.33;;
2644;SDS011;15377;48.540;9.268;2023-08-24T12:19:35;9.90;;;6.03;;
2644;SDS011;15377;48.540;9.268;2023-08-24T12:22:00;13.23;;;6.67;;
2644;SDS011;15377;48.540;9.268;2023-08-24T12:24:26;10.43;;;6.50;;
2644;SDS011;15377;48.540;9.268;2023-08-24T12:26:57;9.60;;;6.47;;
2644;SDS011;15377;48.540;9.268;2023-08-24T12:29:24;9.80;;;6.00;;
2644;SDS011;15377;48.540;9.268;2023-08-24T12:31:50;10.90;;;6.00;;
2644;SDS011;15377;48.540;9.268;2023-08-24T12:34:15;9.50;;;5.93;;
2644;SDS011;15377;48.540;9.268;2023-08-24T12:36:41;11.10;;;6.80;;
2644;SDS011;15377;48.540;9.268;2023-08-24T12:39:10;8.83;;;6.20;;
2644;SDS011;15377;48.540;9.268;2023-08-24T12:41:38;9.70;;;5.80;;
2644;SDS011;15377;48.540;9.268;2023-08-24T12:44:03;12.10;;;6.20;;
2644;SDS011;15377;48.540;9.268;2023-08-24T12:46:35;12.50;;;6.20;;
2644;SDS011;15377;48.540;9.268;2023-08-24T12:49:01;12.90;;;7.00;;
2644;SDS011;15377;48.540;9.268;2023-08-24T12:51:27;12.60;;;6.03;;
2644;SDS011;15377;48.540;9.268;2023-08-24T12:53:52;12.33;;;5.87;;
2644;SDS011;15377;48.540;9.268;2023-08-24T12:56:18;10.83;;;5.43;;
2644;SDS011;15377;48.540;9.268;2023-08-24T12:58:43;10.83;;;5.77;;
2644;SDS011;15377;48.540;9.268;2023-08-24T13:01:08;9.90;;;5.63;;
2644;SDS011;15377;48.540;9.268;2023-08-24T13:03:34;11.63;;;5.60;;
2644;SDS011;15377;48.540;9.268;2023-08-24T13:06:00;11.60;;;5.43;;
2644;SDS011;15377;48.540;9.268;2023-08-24T13:08:26;12.80;;;6.43;;
2644;SDS011;15377;48.540;9.268;2023-08-24T13:10:51;12.30;;;5.33;;
2644;SDS011;15377;48.540;9.268;2023-08-24T13:13:17;14.67;;;6.20;;
2644;SDS011;15377;48.540;9.268;2023-08-24T13:15:42;11.07;;;5.40;;
2644;SDS011;15377;48.540;9.268;2023-08-24T13:18:08;12.43;;;6.30;;
2644;SDS011;15377;48.540;9.268;2023-08-24T13:20:33;9.77;;;5.63;;
2644;SDS011;15377;48.540;9.268;2023-08-24T13:22:58;11.70;;;7.20;;
2644;SDS011;15377;48.540;9.268;2023-08-24T13:25:24;10.13;;;6.23;;
2644;SDS011;15377;48.540;9.268;2023-08-24T13:27:49;10.73;;;5.87;;
2644;SDS011;15377;48.540;9.268;2023-08-24T13:30:15;9.80;;;5.80;;
2644;SDS011;15377;48.540;9.268;2023-08-24T13:32:40;13.07;;;5.60;;
2644;SDS011;15377;48.540;9.268;2023-08-24T13:35:05;9.67;;;6.20;;
2644;SDS011;15377;48.540;9.268;2023-08-24T13:37:31;13.67;;;5.90;;
2644;SDS011;15377;48.540;9.268;2023-08-24T13:39:59;9.03;;;5.90;;
2644;SDS011;15377;48.540;9.268;2023-08-24T13:42:25;8.23;;;5.33;;
2644;SDS011;15377;48.540;9.268;2023-08-24T13:44:50;10.37;;;5.70;;
2644;SDS011;15377;48.540;9.268;2023-08-24T13:47:15;10.80;;;5.80;;
2644;SDS011;15377;48.540;9.268;2023-08-24T13:49:41;10.63;;;6.37;;
2644;SDS011;15377;48.540;9.268;2023-08-24T13:52:06;8.90;;;5.40;;
2644;SDS011;15377;48.540;9.268;2023-08-24T13:54:32;11.80;;;6.13;;
2644;SDS011;15377;48.540;9.268;2023-08-24T13:56:59;18.70;;;6.20;;
2644;SDS011;15377;48.540;9.268;2023-08-24T13:59:25;12.80;;;5.70;;
2644;SDS011;15377;48.540;9.268;2023-08-24T14:01:50;9.93;;;5.17;;
2644;SDS011;15377;48.540;9.268;2023-08-24T14:04:16;10.80;;;5.50;;
2644;SDS011;15377;48.540;9.268;2023-08-24T14:06:41;14.43;;;5.60;;
2644;SDS011;15377;48.540;9.268;2023-08-24T14:09:06;10.90;;;5.70;;
2644;SDS011;15377;48.540;9.268;2023-08-24T14:11:32;12.47;;;6.10;;
2644;SDS011;15377;48.540;9.268;2023-08-24T14:13:58;11.33;;;5.73;;
2644;SDS011;15377;48.540;9.268;2023-08-24T14:16:24;10.70;;;6.33;;
2644;SDS011;15377;48.540;9.268;2023-08-24T14:18:50;10.77;;;6.60;;
2644;SDS011;15377;48.540;9.268;2023-08-24T14:21:17;12.00;;;6.30;;
2644;SDS011;15377;48.540;9.268;2023-08-24T14:23:42;10.60;;;6.23;;
2644;SDS011;15377;48.540;9.268;2023-08-24T14:26:08;8.90;;;6.03;;
2644;SDS011;15377;48.540;9.268;2023-08-24T14:31:24;10.17;;;5.57;;
2644;SDS011;15377;48.540;9.268;2023-08-24T14:33:51;12.13;;;6.40;;
2644;SDS011;15377;48.540;9.268;2023-08-24T14:36:17;13.73;;;6.07;;
2644;SDS011;15377;48.540;9.268;2023-08-24T14:38:43;9.07;;;5.63;;
2644;SDS011;15377;48.540;9.268;2023-08-24T14:41:08;11.87;;;6.30;;
2644;SDS011;15377;48.540;9.268;2023-08-24T14:43:34;11.10;;;5.83;;
2644;SDS011;15377;48.540;9.268;2023-08-24T14:46:00;12.23;;;5.77;;
2644;SDS011;15377;48.540;9.268;2023-08-24T14:48:25;11.10;;;6.20;;
2644;SDS011;15377;48.540;9.268;2023-08-24T14:50:51;12.30;;;6.40;;
2644;SDS011;15377;48.540;9.268;2023-08-24T14:53:16;12.13;;;5.27;;
2644;SDS011;15377;48.540;9.268;2023-08-24T14:55:42;10.40;;;5.83;;
2644;SDS011;15377;48.540;9.268;2023-08-24T14:58:07;11.80;;;6.20;;
2644;SDS011;15377;48.540;9.268;2023-08-24T15:00:33;13.30;;;6.80;;
2644;SDS011;15377;48.540;9.268;2023-08-24T15:02:59;11.17;;;5.70;;
2644;SDS011;15377;48.540;9.268;2023-08-24T15:05:24;12.90;;;5.70;;
2644;SDS011;15377;48.540;9.268;2023-08-24T15:07:50;12.10;;;6.00;;
2644;SDS011;15377;48.540;9.268;2023-08-24T15:10:16;10.37;;;6.23;;
2644;SDS011;15377;48.540;9.268;2023-08-24T15:12:42;10.60;;;6.33;;
2644;SDS011;15377;48.540;9.268;2023-08-24T15:15:09;12.47;;;5.90;;